Main page
METAR-TAF:

METAR-TAF

Airports :

Norrköping Airport

Norrköping, Sweden

latitude: 58-35N, longitude: 016-09E, elevation: 34 m

Current weather observation

The report was made 26 minutes ago, at 22:50 UTC
Wind 2 kt from the South/Southeast
Temperature 15°C
Humidity 100%
Pressure 1012 hPa
Visibility 10 km or more

METAR: ESSP 142250Z AUTO 16002KT 9999 SCT038/// BKN072/// BKN098/// 15/15 Q1012

Time: 01:16 (23:16 UTC)

Forecast

The report was made 11 hours and 46 minutes ago, at 11:30 UTC
Forecast valid from 14 at 12 UTC to 14 at 16 UTC
Wind 13 kt from the Southwest
Visibility 10 km or more
Broken clouds at a height of 3000 ft

TAF: ESSP 141130Z 1412/1416 23013KT 9999 BKN030

Weather observations and forecasts of more than 4000 airports (METAR and TAF reports).

The available stations are represented by yellow and red dots on the map.

Hover mouse over dot to see the name of the station.

Then click to see weather observations and forecasts.

To change the map : click on the green buttons with a black cross to zoom in, on the green button with a dash to zoom out, or on the green arrows for adjacent maps.


METAR-TAF: